Crossett, Arkansas
Current Conditions -  °F | °C
As of 5:55 AM on Thursday 27 Nov 2014 (Local Time) from KBQP Reporting Station
Clear Clear  
Wind Chill: 35°   Ceiling: Unl
Heat Index: 39°   Visibility: 10mi
Dew Point: 30°   Wind: 5mph
Humidity: 71%   Direction: 330°NNW
Pressure: 30.44"   Gusts: NA
Location:  33.13°N, 91.96°W
Report Text: KBQP 271155Z AUTO 33004KT 10SM CLR 04/M01 A3044 RMK AO2 T00371011 10082 20037
Loading
Personal Weather Stations






























Interactive Weather Map New forecast layout! Learn more

10-Day Weather Forecast

Advertisements
Track Severe Weather on mobile